Time;durP1;ratioP1;P1;durP2;ratioP2;P2;SDS_P1;SDS_P2;PMS_P1;PMS_P2;Temp;Humidity;BMP_temperature;BMP_pressure;BME280_temperature;BME280_humidity;BME280_pressure;Samples;Min_cycle;Max_cycle;Signal;HPM_P1;HPM_P2
2023/12/02 00:02:23;;;;;;;;;;;;;;;;;;5110436;28;19939;-68
2023/12/02 00:04:49;;;;;;;;;;;;;;;;;;5085528;28;19920;-68
2023/12/02 00:07:15;;;;;;;;;;;;;;;;;;5110459;27;20316;-68
2023/12/02 00:09:41;;;;;;;;;;;;;;;;;;5111491;27;19924;-68
2023/12/02 00:12:07;;;;;;;;;;;;;;;;;;5094568;28;19924;-69
2023/12/02 00:14:33;;;;;;;;;;;;;;;;;;5113506;28;20389;-68
2023/12/02 00:16:59;;;;;;;;;;;;;;;;;;5105618;28;19951;-68
2023/12/02 00:19:25;;;;;;;;;;;;;;;;;;5088841;28;20022;-69
2023/12/02 00:21:51;;;;;;;;;;;;;;;;;;5085032;28;20278;-69
2023/12/02 00:24:17;;;;;;;;;;;;;;;;;;5107495;28;19946;-69
2023/12/02 00:26:43;;;;;;;;;;;;;;;;;;5074090;28;19927;-69
2023/12/02 00:29:09;;;;;;;;;;;;;;;;;;5101976;28;19996;-69
2023/12/02 00:31:35;;;;;;;;;;;;;;;;;;5105519;28;19989;-69
2023/12/02 00:34:00;;;;;;;;;;;;;;;;;;5107600;28;20356;-69
2023/12/02 00:36:26;;;;;;;;;;;;;;;;;;5102769;28;19974;-69
2023/12/02 00:38:52;;;;;;;;;;;;;;;;;;5110251;28;19983;-69
2023/12/02 00:41:18;;;;;;;;;;;;;;;;;;5104551;28;20300;-68
2023/12/02 00:43:44;;;;;;;;;;;;;;;;;;5110705;28;20045;-68
2023/12/02 00:46:11;;;;;;;;;;;;;;;;;;5091312;28;19919;-69
2023/12/02 00:48:37;;;;;;;;;;;;;;;;;;5109957;28;19924;-69
2023/12/02 00:51:03;;;;;;;;;;;;;;;;;;5106212;28;19919;-69
2023/12/02 00:53:29;;;;;;;;;;;;;;;;;;5104670;28;20384;-69
2023/12/02 00:55:55;;;;;;;;;;;;;;;;;;5095255;28;19931;-68
2023/12/02 00:58:21;;;;;;;;;;;;;;;;;;5107134;27;19969;-69
2023/12/02 01:00:47;;;;;;;;;;;;;;;;;;5108286;28;20323;-69
2023/12/02 01:03:13;;;;;;;;;;;;;;;;;;5093994;28;19977;-69
2023/12/02 01:05:39;;;;;;;;;;;;;;;;;;5100884;28;19970;-69
2023/12/02 01:08:05;;;;;;;;;;;;;;;;;;5104910;28;19919;-69
2023/12/02 01:10:31;;;;;;;;;;;;;;;;;;5087123;28;19924;-69
2023/12/02 01:12:56;;;;;;;;;;;;;;;;;;5108633;28;19936;-68
2023/12/02 01:15:22;;;;;;;;;;;;;;;;;;5109812;28;19935;-68
2023/12/02 01:17:48;;;;;;;;;;;;;;;;;;5091150;28;19919;-69
2023/12/02 01:20:14;;;;;;;;;;;;;;;;;;5090792;28;19920;-68
2023/12/02 01:22:40;;;;;;;;;;;;;;;;;;5088454;28;20355;-69
2023/12/02 01:25:06;;;;;;;;;;;;;;;;;;5116425;27;19927;-68
2023/12/02 01:27:32;;;;;;;;;;;;;;;;;;5110724;27;19947;-69
2023/12/02 01:29:58;;;;;;;;;;;;;;;;;;5118168;27;19939;-68
2023/12/02 01:32:24;;;;;;;;;;;;;;;;;;5111090;28;19927;-69
2023/12/02 01:34:50;;;;;;;;;;;;;;;;;;5075582;28;19946;-69
2023/12/02 01:37:16;;;;;;;;;;;;;;;;;;5103001;28;20348;-69
2023/12/02 01:39:42;;;;;;;;;;;;;;;;;;5112064;28;19920;-69
2023/12/02 01:42:08;;;;;;;;;;;;;;;;;;5075876;28;19928;-69
2023/12/02 01:44:34;;;;;;;;;;;;;;;;;;5090718;28;19920;-68
2023/12/02 01:47:00;;;;;;;;;;;;;;;;;;5110306;28;19920;-69
2023/12/02 01:49:26;;;;;;;;;;;;;;;;;;5088527;28;20356;-69
2023/12/02 01:51:52;;;;;;;;;;;;;;;;;;5081196;28;20014;-69
2023/12/02 01:54:19;;;;;;;;;;;;;;;;;;5106849;28;20410;-69
2023/12/02 01:56:45;;;;;;;;;;;;;;;;;;5108599;28;19924;-69
2023/12/02 01:59:11;;;;;;;;;;;;;;;;;;5089529;28;19931;-68
2023/12/02 02:01:37;;;;;;;;;;;;;;;;;;5108835;28;19928;-68
2023/12/02 02:04:03;;;;;;;;;;;;;;;;;;5105027;28;19966;-68
2023/12/02 02:06:29;;;;;;;;;;;;;;;;;;5110995;28;19924;-68
2023/12/02 02:08:55;;;;;;;;;;;;;;;;;;5080083;28;19919;-68
2023/12/02 02:11:21;;;;;;;;;;;;;;;;;;5109073;28;20290;-69
2023/12/02 02:13:47;;;;;;;;;;;;;;;;;;5108863;27;19957;-69
2023/12/02 02:16:13;;;;;;;;;;;;;;;;;;5108098;28;19973;-69
2023/12/02 02:18:38;;;;;;;;;;;;;;;;;;5105824;28;19920;-69
2023/12/02 02:21:04;;;;;;;;;;;;;;;;;;5104498;28;19923;-69
2023/12/02 02:23:30;;;;;;;;;;;;;;;;;;5109229;28;20686;-69
2023/12/02 02:25:56;;;;;;;;;;;;;;;;;;5104287;27;19924;-69
2023/12/02 02:28:22;;;;;;;;;;;;;;;;;;5089433;28;19923;-69
2023/12/02 02:30:48;;;;;;;;;;;;;;;;;;5104662;28;19919;-69
2023/12/02 02:33:14;;;;;;;;;;;;;;;;;;5108141;28;19939;-69
2023/12/02 02:35:40;;;;;;;;;;;;;;;;;;5090470;28;19924;-69
2023/12/02 02:38:06;;;;;;;;;;;;;;;;;;5107785;28;19920;-69
2023/12/02 02:40:32;;;;;;;;;;;;;;;;;;5106912;28;19924;-68
2023/12/02 02:42:58;;;;;;;;;;;;;;;;;;5104328;28;20638;-69
2023/12/02 02:45:23;;;;;;;;;;;;;;;;;;5086385;28;19928;-69
2023/12/02 02:47:49;;;;;;;;;;;;;;;;;;5110298;28;19920;-68
2023/12/02 02:50:15;;;;;;;;;;;;;;;;;;5089138;28;19923;-68
2023/12/02 02:52:41;;;;;;;;;;;;;;;;;;5105235;28;19924;-69
2023/12/02 02:55:07;;;;;;;;;;;;;;;;;;5106474;28;19942;-68
2023/12/02 02:57:33;;;;;;;;;;;;;;;;;;5099002;28;19920;-69
2023/12/02 02:59:59;;;;;;;;;;;;;;;;;;5106654;28;20006;-69
2023/12/02 03:02:25;;;;;;;;;;;;;;;;;;5109306;28;21323;-69
2023/12/02 03:04:51;;;;;;;;;;;;;;;;;;5107021;28;20411;-69
2023/12/02 03:07:17;;;;;;;;;;;;;;;;;;5108638;28;19928;-69
2023/12/02 03:09:43;;;;;;;;;;;;;;;;;;5109273;28;20381;-69
2023/12/02 03:12:09;;;;;;;;;;;;;;;;;;5104467;28;19930;-68
2023/12/02 03:14:35;;;;;;;;;;;;;;;;;;5109729;28;19942;-69
2023/12/02 03:17:01;;;;;;;;;;;;;;;;;;5104986;28;19985;-69
2023/12/02 03:19:26;;;;;;;;;;;;;;;;;;5109950;28;19919;-68
2023/12/02 03:21:52;;;;;;;;;;;;;;;;;;5116275;28;19932;-69
2023/12/02 03:24:18;;;;;;;;;;;;;;;;;;5109795;28;19923;-69
2023/12/02 03:26:44;;;;;;;;;;;;;;;;;;5107372;28;19932;-68
2023/12/02 03:29:10;;;;;;;;;;;;;;;;;;5111299;28;20319;-69
2023/12/02 03:31:36;;;;;;;;;;;;;;;;;;5108161;28;19928;-69
2023/12/02 03:34:02;;;;;;;;;;;;;;;;;;5104724;28;20320;-69
2023/12/02 03:36:28;;;;;;;;;;;;;;;;;;5088814;28;19927;-68
2023/12/02 03:38:54;;;;;;;;;;;;;;;;;;5111550;28;20320;-69
2023/12/02 03:41:20;;;;;;;;;;;;;;;;;;5111178;28;20002;-69
2023/12/02 03:43:46;;;;;;;;;;;;;;;;;;5106818;28;19928;-69
2023/12/02 03:46:12;;;;;;;;;;;;;;;;;;5089777;28;19919;-68
2023/12/02 03:48:38;;;;;;;;;;;;;;;;;;5112806;28;19919;-68
2023/12/02 03:51:04;;;;;;;;;;;;;;;;;;5109532;28;19934;-68
2023/12/02 03:53:34;;;;;;;;;;;;;;;;;;5111078;28;19920;-69
2023/12/02 03:56:00;;;;;;;;;;;;;;;;;;5113896;28;20006;-69
2023/12/02 03:58:27;;;;;;;;;;;;;;;;;;5103181;28;20093;-69
2023/12/02 04:00:53;;;;;;;;;;;;;;;;;;5105047;28;19993;-69
2023/12/02 04:03:19;;;;;;;;;;;;;;;;;;5112089;28;20010;-69
2023/12/02 04:05:45;;;;;;;;;;;;;;;;;;5113629;28;20008;-69
2023/12/02 04:08:11;;;;;;;;;;;;;;;;;;5108776;28;19924;-69
2023/12/02 04:10:37;;;;;;;;;;;;;;;;;;5107574;28;20008;-69
2023/12/02 04:13:03;;;;;;;;;;;;;;;;;;5091606;28;19927;-69
2023/12/02 04:15:29;;;;;;;;;;;;;;;;;;5105319;28;20353;-69
2023/12/02 04:17:55;;;;;;;;;;;;;;;;;;5104426;28;20008;-69
2023/12/02 04:20:21;;;;;;;;;;;;;;;;;;5110034;27;20010;-69
2023/12/02 04:22:47;;;;;;;;;;;;;;;;;;5111950;28;19969;-69
2023/12/02 04:25:13;;;;;;;;;;;;;;;;;;5108163;27;20619;-69
2023/12/02 04:27:41;;;;;;;;;;;;;;;;;;5073585;28;19969;-69
2023/12/02 04:30:08;;;;;;;;;;;;;;;;;;5107884;28;19974;-69
2023/12/02 04:32:34;;;;;;;;;;;;;;;;;;5091799;28;19947;-69
2023/12/02 04:35:00;;;;;;;;;;;;;;;;;;5108217;28;19954;-69
2023/12/02 04:37:26;;;;;;;;;;;;;;;;;;5111904;28;19985;-69
2023/12/02 04:39:52;;;;;;;;;;;;;;;;;;5111293;28;20250;-69
2023/12/02 04:42:18;;;;;;;;;;;;;;;;;;5105229;28;20010;-69
2023/12/02 04:44:44;;;;;;;;;;;;;;;;;;5108069;28;20043;-69
2023/12/02 04:47:10;;;;;;;;;;;;;;;;;;5105262;28;20511;-69
2023/12/02 04:49:35;;;;;;;;;;;;;;;;;;5106283;28;19926;-69
2023/12/02 04:52:01;;;;;;;;;;;;;;;;;;5104205;27;19949;-69
2023/12/02 04:54:27;;;;;;;;;;;;;;;;;;5109384;28;19923;-69
2023/12/02 04:56:53;;;;;;;;;;;;;;;;;;5111972;28;19930;-69
2023/12/02 04:59:19;;;;;;;;;;;;;;;;;;5088220;28;19946;-69
2023/12/02 05:01:45;;;;;;;;;;;;;;;;;;5089083;28;19989;-69
2023/12/02 05:04:11;;;;;;;;;;;;;;;;;;5105996;28;20692;-69
2023/12/02 05:06:38;;;;;;;;;;;;;;;;;;5110204;28;20377;-69
2023/12/02 05:09:06;;;;;;;;;;;;;;;;;;5091267;28;20383;-68
2023/12/02 05:11:32;;;;;;;;;;;;;;;;;;5110618;28;19920;-69
2023/12/02 05:13:58;;;;;;;;;;;;;;;;;;5092920;28;19928;-69
2023/12/02 05:16:24;;;;;;;;;;;;;;;;;;5087373;28;19935;-68
2023/12/02 05:18:50;;;;;;;;;;;;;;;;;;5088099;28;20377;-66
2023/12/02 05:21:16;;;;;;;;;;;;;;;;;;5090096;28;20049;-66
2023/12/02 05:23:42;;;;;;;;;;;;;;;;;;5110688;28;19975;-66
2023/12/02 05:26:08;;;;;;;;;;;;;;;;;;5105831;28;19966;-66
2023/12/02 05:28:34;;;;;;;;;;;;;;;;;;5110766;28;19920;-66
2023/12/02 05:31:00;;;;;;;;;;;;;;;;;;5104568;28;19920;-68
2023/12/02 05:33:25;;;;;;;;;;;;;;;;;;5087880;28;20335;-69
2023/12/02 05:35:51;;;;;;;;;;;;;;;;;;5107776;28;19927;-69
2023/12/02 05:38:17;;;;;;;;;;;;;;;;;;5105432;28;19927;-69
2023/12/02 05:40:43;;;;;;;;;;;;;;;;;;5108676;28;19924;-68
2023/12/02 05:43:09;;;;;;;;;;;;;;;;;;5105040;28;19930;-68
2023/12/02 05:45:35;;;;;;;;;;;;;;;;;;5104125;28;19921;-69
2023/12/02 05:48:01;;;;;;;;;;;;;;;;;;5108937;28;19919;-69
2023/12/02 05:50:27;;;;;;;;;;;;;;;;;;5101761;28;20002;-69
2023/12/02 05:52:53;;;;;;;;;;;;;;;;;;5107196;28;19978;-69
2023/12/02 05:55:19;;;;;;;;;;;;;;;;;;5111902;28;19962;-69
2023/12/02 05:57:45;;;;;;;;;;;;;;;;;;5109454;28;20317;-69
2023/12/02 06:00:11;;;;;;;;;;;;;;;;;;5103065;28;20010;-69
2023/12/02 06:02:37;;;;;;;;;;;;;;;;;;5107402;28;19966;-69
2023/12/02 06:05:03;;;;;;;;;;;;;;;;;;5103036;28;19942;-68
2023/12/02 06:07:28;;;;;;;;;;;;;;;;;;5109189;28;19920;-68
2023/12/02 06:09:54;;;;;;;;;;;;;;;;;;5108176;28;19923;-68
2023/12/02 06:12:20;;;;;;;;;;;;;;;;;;5090171;28;19928;-68
2023/12/02 06:14:46;;;;;;;;;;;;;;;;;;5110354;28;19923;-68
2023/12/02 06:17:12;;;;;;;;;;;;;;;;;;5104786;28;19924;-68
2023/12/02 06:19:38;;;;;;;;;;;;;;;;;;5093056;28;19977;-69
2023/12/02 06:22:04;;;;;;;;;;;;;;;;;;5108619;28;20426;-69
2023/12/02 06:24:30;;;;;;;;;;;;;;;;;;5091493;28;19941;-69
2023/12/02 06:26:56;;;;;;;;;;;;;;;;;;5110141;28;20276;-70
2023/12/02 06:29:22;;;;;;;;;;;;;;;;;;5104382;28;20019;-69
2023/12/02 06:31:48;;;;;;;;;;;;;;;;;;5102983;27;19969;-69
2023/12/02 06:34:13;;;;;;;;;;;;;;;;;;5092717;28;19963;-69
2023/12/02 06:36:39;;;;;;;;;;;;;;;;;;5104444;28;20007;-69
2023/12/02 06:39:07;;;;;;;;;;;;;;;;;;5115041;28;19968;-69
2023/12/02 06:41:33;;;;;;;;;;;;;;;;;;5111378;28;19955;-69
2023/12/02 06:43:59;;;;;;;;;;;;;;;;;;5119391;27;19993;-69
2023/12/02 06:46:25;;;;;;;;;;;;;;;;;;5110547;27;20044;-69
2023/12/02 06:48:50;;;;;;;;;;;;;;;;;;5115667;27;20014;-69
2023/12/02 06:51:16;;;;;;;;;;;;;;;;;;5086644;28;19927;-69
2023/12/02 06:53:42;;;;;;;;;;;;;;;;;;5120861;28;19963;-69
2023/12/02 06:56:08;;;;;;;;;;;;;;;;;;5114579;28;19973;-69
2023/12/02 06:58:34;;;;;;;;;;;;;;;;;;5106689;28;20007;-69
2023/12/02 07:01:00;;;;;;;;;;;;;;;;;;5093402;28;20018;-69
2023/12/02 07:03:26;;;;;;;;;;;;;;;;;;5109309;28;20435;-69
2023/12/02 07:05:52;;;;;;;;;;;;;;;;;;5113870;28;19924;-69
2023/12/02 07:08:18;;;;;;;;;;;;;;;;;;5107862;28;20388;-69
2023/12/02 07:10:44;;;;;;;;;;;;;;;;;;5114029;28;19920;-69
2023/12/02 07:13:10;;;;;;;;;;;;;;;;;;5097749;28;19924;-69
2023/12/02 07:15:36;;;;;;;;;;;;;;;;;;5088363;28;19931;-69
2023/12/02 07:18:02;;;;;;;;;;;;;;;;;;5089032;28;19959;-69
2023/12/02 07:20:28;;;;;;;;;;;;;;;;;;5092898;28;20369;-67
2023/12/02 07:22:54;;;;;;;;;;;;;;;;;;5095605;28;20037;-69
2023/12/02 07:25:20;;;;;;;;;;;;;;;;;;5107496;28;20010;-69
2023/12/02 07:27:46;;;;;;;;;;;;;;;;;;5111680;28;19920;-69
2023/12/02 07:30:12;;;;;;;;;;;;;;;;;;5119065;27;20285;-69
2023/12/02 07:32:38;;;;;;;;;;;;;;;;;;5108886;28;19920;-69
2023/12/02 07:35:04;;;;;;;;;;;;;;;;;;5109868;27;19919;-69
2023/12/02 07:37:30;;;;;;;;;;;;;;;;;;5088966;28;20018;-69
2023/12/02 07:39:56;;;;;;;;;;;;;;;;;;5113389;27;20010;-69
2023/12/02 07:42:22;;;;;;;;;;;;;;;;;;5108471;28;20368;-69
2023/12/02 07:44:48;;;;;;;;;;;;;;;;;;5103768;27;19959;-69
2023/12/02 07:47:14;;;;;;;;;;;;;;;;;;5105824;27;19919;-69
2023/12/02 07:49:40;;;;;;;;;;;;;;;;;;5116573;27;20319;-69
2023/12/02 07:52:05;;;;;;;;;;;;;;;;;;5114734;28;19919;-69
2023/12/02 07:54:31;;;;;;;;;;;;;;;;;;5112996;28;19920;-67
2023/12/02 07:56:57;;;;;;;;;;;;;;;;;;5085205;28;20091;-67
2023/12/02 07:59:23;;;;;;;;;;;;;;;;;;5108605;27;19923;-67
2023/12/02 08:01:49;;;;;;;;;;;;;;;;;;5104265;28;19959;-67
2023/12/02 08:04:15;;;;;;;;;;;;;;;;;;5090542;28;19920;-67
2023/12/02 08:06:41;;;;;;;;;;;;;;;;;;5102918;27;19924;-67
2023/12/02 08:09:07;;;;;;;;;;;;;;;;;;5110619;28;20015;-68
2023/12/02 08:11:33;;;;;;;;;;;;;;;;;;5091350;28;20339;-68
2023/12/02 08:13:59;;;;;;;;;;;;;;;;;;5108765;28;20660;-67
2023/12/02 08:16:25;;;;;;;;;;;;;;;;;;5103194;27;19975;-67
2023/12/02 08:18:51;;;;;;;;;;;;;;;;;;5093182;28;19955;-68
2023/12/02 08:21:17;;;;;;;;;;;;;;;;;;5087504;28;19927;-68
2023/12/02 08:23:43;;;;;;;;;;;;;;;;;;5103709;28;21507;-68
2023/12/02 08:26:09;;;;;;;;;;;;;;;;;;5086172;28;20014;-67
2023/12/02 08:28:35;;;;;;;;;;;;;;;;;;5107080;27;19924;-67
2023/12/02 08:31:00;;;;;;;;;;;;;;;;;;5088952;27;20008;-67
2023/12/02 08:33:26;;;;;;;;;;;;;;;;;;5099525;28;19927;-67
2023/12/02 08:35:52;;;;;;;;;;;;;;;;;;5084125;28;19928;-68
2023/12/02 08:38:18;;;;;;;;;;;;;;;;;;5088191;28;19920;-67
2023/12/02 08:40:44;;;;;;;;;;;;;;;;;;5085545;28;19924;-67
2023/12/02 08:43:10;;;;;;;;;;;;;;;;;;5109179;28;19924;-67
2023/12/02 08:45:36;;;;;;;;;;;;;;;;;;5105548;28;19928;-67
2023/12/02 08:48:02;;;;;;;;;;;;;;;;;;5103537;28;20633;-67
2023/12/02 08:50:28;;;;;;;;;;;;;;;;;;5105929;28;19920;-68
2023/12/02 08:52:54;;;;;;;;;;;;;;;;;;5087532;28;19919;-67
2023/12/02 08:55:20;;;;;;;;;;;;;;;;;;5086487;28;19923;-67
2023/12/02 08:57:46;;;;;;;;;;;;;;;;;;5104765;27;19919;-67
2023/12/02 09:00:12;;;;;;;;;;;;;;;;;;5103546;28;19934;-67
2023/12/02 09:02:37;;;;;;;;;;;;;;;;;;5081870;28;19931;-67
2023/12/02 09:05:05;;;;;;;;;;;;;;;;;;5105995;28;20375;-67
2023/12/02 09:07:31;;;;;;;;;;;;;;;;;;5104132;28;20007;-67
2023/12/02 09:09:56;;;;;;;;;;;;;;;;;;5087951;28;20006;-67
2023/12/02 09:12:22;;;;;;;;;;;;;;;;;;5111563;27;19923;-67
2023/12/02 09:14:48;;;;;;;;;;;;;;;;;;5109532;27;20010;-67
2023/12/02 09:17:14;;;;;;;;;;;;;;;;;;5112145;27;19920;-67
2023/12/02 09:19:40;;;;;;;;;;;;;;;;;;5102925;28;19931;-67
2023/12/02 09:22:06;;;;;;;;;;;;;;;;;;5089805;28;19931;-67
2023/12/02 09:24:32;;;;;;;;;;;;;;;;;;5091791;28;20308;-67
2023/12/02 09:26:58;;;;;;;;;;;;;;;;;;5109077;27;19923;-67
2023/12/02 09:29:24;;;;;;;;;;;;;;;;;;5098617;28;20422;-67
2023/12/02 09:31:50;;;;;;;;;;;;;;;;;;5103049;27;19980;-67
2023/12/02 09:34:16;;;;;;;;;;;;;;;;;;5111532;28;19923;-67
2023/12/02 09:36:42;;;;;;;;;;;;;;;;;;5108851;28;20012;-67
2023/12/02 09:39:09;;;;;;;;;;;;;;;;;;5114814;27;20359;-67
2023/12/02 09:41:35;;;;;;;;;;;;;;;;;;5106809;27;19931;-67
2023/12/02 09:44:01;;;;;;;;;;;;;;;;;;5088946;28;19928;-67
2023/12/02 09:46:27;;;;;;;;;;;;;;;;;;5079751;28;19928;-67
2023/12/02 09:48:53;;;;;;;;;;;;;;;;;;5073790;27;19923;-67
2023/12/02 09:51:18;;;;;;;;;;;;;;;;;;5105534;28;20471;-67
2023/12/02 09:53:44;;;;;;;;;;;;;;;;;;5110543;28;19924;-68
2023/12/02 09:56:10;;;;;;;;;;;;;;;;;;5110481;28;19920;-67
2023/12/02 09:58:56;;;;;;;;;;;;;;;;;;5128197;27;19916;-66
2023/12/02 10:01:22;;;;;;;;;;;;;;;;;;5112676;28;19924;-66
2023/12/02 10:03:48;;;;;;;;;;;;;;;;;;5101046;28;20904;-66
2023/12/02 10:06:14;;;;;;;;;;;;;;;;;;5105432;28;19920;-65
2023/12/02 10:08:39;;;;;;;;;;;;;;;;;;5101363;28;20278;-66
2023/12/02 10:11:06;;;;;;;;;;;;;;;;;;5113648;28;20007;-65
2023/12/02 10:13:32;;;;;;;;;;;;;;;;;;5102993;27;19921;-66
2023/12/02 10:15:58;;;;;;;;;;;;;;;;;;5103434;28;19924;-66
2023/12/02 10:18:24;;;;;;;;;;;;;;;;;;5101805;28;19975;-66
2023/12/02 10:20:50;;;;;;;;;;;;;;;;;;5106417;28;19963;-65
2023/12/02 10:23:16;;;;;;;;;;;;;;;;;;5092548;28;19920;-66
2023/12/02 10:25:42;;;;;;;;;;;;;;;;;;5110365;27;19924;-67
2023/12/02 10:28:08;;;;;;;;;;;;;;;;;;5102797;28;19920;-66
2023/12/02 10:30:34;;;;;;;;;;;;;;;;;;5114268;27;19920;-64
2023/12/02 10:33:00;;;;;;;;;;;;;;;;;;5100344;28;19926;-65
2023/12/02 10:35:26;;;;;;;;;;;;;;;;;;5122054;27;20361;-65
2023/12/02 10:37:52;;;;;;;;;;;;;;;;;;5112619;28;19924;-65
2023/12/02 10:40:17;;;;;;;;;;;;;;;;;;5112416;27;19923;-65
2023/12/02 10:42:43;;;;;;;;;;;;;;;;;;5105741;28;20034;-65
2023/12/02 10:45:09;;;;;;;;;;;;;;;;;;5104616;27;19955;-65
2023/12/02 10:47:35;;;;;;;;;;;;;;;;;;5116197;28;19935;-65
2023/12/02 10:50:01;;;;;;;;;;;;;;;;;;5115411;27;19921;-65
2023/12/02 10:52:28;;;;;;;;;;;;;;;;;;5124287;28;19924;-65
2023/12/02 10:54:53;;;;;;;;;;;;;;;;;;5127119;22;19958;-67
2023/12/02 10:57:19;;;;;;;;;;;;;;;;;;5066289;28;20049;-67
2023/12/02 10:59:45;;;;;;;;;;;;;;;;;;5063239;28;20338;-67
2023/12/02 11:02:11;;;;;;;;;;;;;;;;;;5065721;28;20596;-67
2023/12/02 11:04:37;;;;;;;;;;;;;;;;;;5067312;28;19960;-67
2023/12/02 11:07:03;;;;;;;;;;;;;;;;;;5061006;28;20000;-67
2023/12/02 11:09:29;;;;;;;;;;;;;;;;;;5057917;28;20003;-67
2023/12/02 11:11:56;;;;;;;;;;;;;;;;;;5047321;28;19932;-67
2023/12/02 11:14:22;;;;;;;;;;;;;;;;;;5057448;28;20360;-67
2023/12/02 11:16:47;;;;;;;;;;;;;;;;;;5058479;28;19921;-67
2023/12/02 11:19:13;;;;;;;;;;;;;;;;;;5066362;28;19929;-67
2023/12/02 11:21:40;;;;;;;;;;;;;;;;;;5050748;28;19921;-68
2023/12/02 11:24:05;;;;;;;;;;;;;;;;;;5040515;28;20336;-67
2023/12/02 11:26:31;;;;;;;;;;;;;;;;;;5064319;28;19925;-67
2023/12/02 11:28:57;;;;;;;;;;;;;;;;;;5062941;28;19928;-67
2023/12/02 11:31:23;;;;;;;;;;;;;;;;;;5048543;28;19929;-67
2023/12/02 11:33:49;;;;;;;;;;;;;;;;;;5052602;28;19956;-67
2023/12/02 11:36:15;;;;;;;;;;;;;;;;;;5046494;28;19982;-68
2023/12/02 11:38:41;;;;;;;;;;;;;;;;;;5044676;28;19968;-67
2023/12/02 11:41:07;;;;;;;;;;;;;;;;;;5070045;28;19928;-68
2023/12/02 11:43:33;;;;;;;;;;;;;;;;;;5047143;28;19921;-67
2023/12/02 11:45:59;;;;;;;;;;;;;;;;;;5046625;28;19939;-67
2023/12/02 11:48:25;;;;;;;;;;;;;;;;;;5035124;28;20369;-67
2023/12/02 11:50:51;;;;;;;;;;;;;;;;;;5052498;28;19921;-67
2023/12/02 11:53:17;;;;;;;;;;;;;;;;;;5064232;28;19921;-68
2023/12/02 11:55:42;;;;;;;;;;;;;;;;;;5052755;28;19947;-68
2023/12/02 11:58:08;;;;;;;;;;;;;;;;;;5052808;28;19983;-68
2023/12/02 12:00:34;;;;;;;;;;;;;;;;;;5050123;28;19963;-68
2023/12/02 12:03:00;;;;;;;;;;;;;;;;;;5061523;28;19920;-68
2023/12/02 12:05:27;;;;;;;;;;;;;;;;;;5053846;28;20279;-68
2023/12/02 12:07:54;;;;;;;;;;;;;;;;;;5061751;28;20006;-67
2023/12/02 12:10:20;;;;;;;;;;;;;;;;;;5059541;28;19963;-68
2023/12/02 12:12:46;;;;;;;;;;;;;;;;;;5073173;28;19956;-68
2023/12/02 12:15:11;;;;;;;;;;;;;;;;;;5059280;28;19971;-68
2023/12/02 12:17:38;;;;;;;;;;;;;;;;;;5059854;28;19935;-68
2023/12/02 12:20:04;;;;;;;;;;;;;;;;;;5043140;28;19930;-68
2023/12/02 12:22:30;;;;;;;;;;;;;;;;;;5039969;28;19925;-68
2023/12/02 12:24:56;;;;;;;;;;;;;;;;;;5033329;28;19927;-68
2023/12/02 12:27:22;;;;;;;;;;;;;;;;;;5065879;28;19948;-68
2023/12/02 12:29:48;;;;;;;;;;;;;;;;;;5062513;28;20294;-67
2023/12/02 12:32:14;;;;;;;;;;;;;;;;;;5048039;28;20402;-68
2023/12/02 12:34:39;;;;;;;;;;;;;;;;;;5034289;28;19935;-68
2023/12/02 12:37:05;;;;;;;;;;;;;;;;;;5050857;28;19928;-67
2023/12/02 12:39:31;;;;;;;;;;;;;;;;;;5052592;28;19974;-68
2023/12/02 12:41:57;;;;;;;;;;;;;;;;;;5054978;28;19943;-68
2023/12/02 12:44:23;;;;;;;;;;;;;;;;;;5053535;28;19920;-68
2023/12/02 12:46:50;;;;;;;;;;;;;;;;;;5051320;28;19931;-68
2023/12/02 12:49:17;;;;;;;;;;;;;;;;;;5050217;28;19942;-68
2023/12/02 12:51:42;;;;;;;;;;;;;;;;;;5038949;28;19924;-68
2023/12/02 12:54:08;;;;;;;;;;;;;;;;;;5050319;28;20020;-69
2023/12/02 12:56:34;;;;;;;;;;;;;;;;;;5047176;28;19972;-69
2023/12/02 12:59:00;;;;;;;;;;;;;;;;;;5060802;28;20006;-69
2023/12/02 13:01:26;;;;;;;;;;;;;;;;;;5059584;28;19932;-70
2023/12/02 13:03:52;;;;;;;;;;;;;;;;;;5049011;28;19920;-69
2023/12/02 13:06:18;;;;;;;;;;;;;;;;;;5051675;28;20003;-69
2023/12/02 13:08:44;;;;;;;;;;;;;;;;;;5047646;28;19928;-69
2023/12/02 13:11:10;;;;;;;;;;;;;;;;;;5061007;28;19924;-69
2023/12/02 13:13:36;;;;;;;;;;;;;;;;;;5030021;28;19982;-69
2023/12/02 13:16:04;;;;;;;;;;;;;;;;;;5058738;28;20369;-69
2023/12/02 13:18:30;;;;;;;;;;;;;;;;;;5055487;28;19990;-69
2023/12/02 13:20:56;;;;;;;;;;;;;;;;;;5056551;28;20394;-71
2023/12/02 13:23:22;;;;;;;;;;;;;;;;;;5036428;28;19931;-69
2023/12/02 13:25:48;;;;;;;;;;;;;;;;;;5035044;28;19925;-69
2023/12/02 13:28:14;;;;;;;;;;;;;;;;;;5050635;28;19928;-70
2023/12/02 13:30:40;;;;;;;;;;;;;;;;;;5054175;28;19925;-69
2023/12/02 13:33:06;;;;;;;;;;;;;;;;;;5053762;28;19925;-70
2023/12/02 13:35:32;;;;;;;;;;;;;;;;;;5058419;28;19920;-69
2023/12/02 13:37:58;;;;;;;;;;;;;;;;;;5046710;28;20398;-70
2023/12/02 13:40:24;;;;;;;;;;;;;;;;;;5063492;28;19928;-70
2023/12/02 13:42:50;;;;;;;;;;;;;;;;;;5016126;28;19921;-69
2023/12/02 13:45:17;;;;;;;;;;;;;;;;;;5051973;28;19921;-70
2023/12/02 13:47:43;;;;;;;;;;;;;;;;;;5052120;28;19925;-69
2023/12/02 13:50:09;;;;;;;;;;;;;;;;;;5049801;28;19927;-69
2023/12/02 13:52:35;;;;;;;;;;;;;;;;;;5049370;28;19925;-70
2023/12/02 13:55:01;;;;;;;;;;;;;;;;;;5058626;28;19974;-70
2023/12/02 13:57:27;;;;;;;;;;;;;;;;;;5056210;28;20003;-69
2023/12/02 13:59:53;;;;;;;;;;;;;;;;;;5047765;28;20319;-69
2023/12/02 14:02:18;;;;;;;;;;;;;;;;;;5063423;28;20290;-69
2023/12/02 14:04:45;;;;;;;;;;;;;;;;;;5051222;28;19936;-69
2023/12/02 14:07:10;;;;;;;;;;;;;;;;;;5028867;28;19936;-69
2023/12/02 14:09:36;;;;;;;;;;;;;;;;;;5029757;28;19920;-70
2023/12/02 14:12:02;;;;;;;;;;;;;;;;;;5056350;28;19963;-70
2023/12/02 14:14:28;;;;;;;;;;;;;;;;;;5011749;28;20144;-70
2023/12/02 14:16:54;;;;;;;;;;;;;;;;;;5044126;28;20010;-69
2023/12/02 14:19:20;;;;;;;;;;;;;;;;;;5043649;28;19979;-70
2023/12/02 14:21:46;;;;;;;;;;;;;;;;;;5059889;28;20390;-69
2023/12/02 14:24:12;;;;;;;;;;;;;;;;;;5049141;28;20039;-69
2023/12/02 14:26:38;;;;;;;;;;;;;;;;;;5049678;28;19932;-70
2023/12/02 14:29:04;;;;;;;;;;;;;;;;;;5046283;28;19940;-70
2023/12/02 14:31:30;;;;;;;;;;;;;;;;;;5043896;28;20329;-70
2023/12/02 14:33:56;;;;;;;;;;;;;;;;;;5046703;28;19932;-70
2023/12/02 14:36:22;;;;;;;;;;;;;;;;;;5045698;28;20043;-71
2023/12/02 14:38:48;;;;;;;;;;;;;;;;;;5047497;28;20026;-70
2023/12/02 14:41:14;;;;;;;;;;;;;;;;;;5029083;28;20392;-70
2023/12/02 14:43:40;;;;;;;;;;;;;;;;;;5028682;28;19971;-70
2023/12/02 14:46:05;;;;;;;;;;;;;;;;;;5035473;28;19921;-70
2023/12/02 14:48:31;;;;;;;;;;;;;;;;;;5047528;28;19929;-71
2023/12/02 14:50:57;;;;;;;;;;;;;;;;;;5036240;28;20413;-71
2023/12/02 14:53:23;;;;;;;;;;;;;;;;;;5056451;28;20014;-71
2023/12/02 14:55:49;;;;;;;;;;;;;;;;;;5051488;28;19925;-71
2023/12/02 14:58:15;;;;;;;;;;;;;;;;;;5060710;28;19931;-70
2023/12/02 15:00:41;;;;;;;;;;;;;;;;;;5058766;28;20374;-71
2023/12/02 15:03:07;;;;;;;;;;;;;;;;;;5038819;28;19968;-71
2023/12/02 15:05:33;;;;;;;;;;;;;;;;;;5060712;28;19968;-70
2023/12/02 15:07:59;;;;;;;;;;;;;;;;;;5061726;28;19952;-70
2023/12/02 15:10:25;;;;;;;;;;;;;;;;;;5033757;28;20529;-71
2023/12/02 15:12:52;;;;;;;;;;;;;;;;;;5040330;28;19974;-70
2023/12/02 15:15:18;;;;;;;;;;;;;;;;;;5054876;28;19925;-70
2023/12/02 15:17:43;;;;;;;;;;;;;;;;;;5059993;28;20412;-69
2023/12/02 15:20:10;;;;;;;;;;;;;;;;;;5043991;28;20023;-71
2023/12/02 15:22:35;;;;;;;;;;;;;;;;;;5035515;28;20004;-69
2023/12/02 15:25:01;;;;;;;;;;;;;;;;;;5062791;28;20107;-69
2023/12/02 15:27:27;;;;;;;;;;;;;;;;;;5058233;28;20431;-69
2023/12/02 15:29:53;;;;;;;;;;;;;;;;;;5024722;28;19924;-70
2023/12/02 15:32:19;;;;;;;;;;;;;;;;;;5049919;28;20016;-70
2023/12/02 15:34:45;;;;;;;;;;;;;;;;;;5034745;28;19924;-68
2023/12/02 15:37:12;;;;;;;;;;;;;;;;;;5044939;28;19970;-69
2023/12/02 15:39:38;;;;;;;;;;;;;;;;;;5052628;28;19928;-69
2023/12/02 15:42:03;;;;;;;;;;;;;;;;;;5041324;28;20344;-69
2023/12/02 15:44:29;;;;;;;;;;;;;;;;;;5046739;28;19950;-68
2023/12/02 15:46:55;;;;;;;;;;;;;;;;;;5052869;28;20310;-69
2023/12/02 15:49:22;;;;;;;;;;;;;;;;;;5060262;28;19996;-69
2023/12/02 15:51:48;;;;;;;;;;;;;;;;;;5030932;28;19924;-69
2023/12/02 15:54:18;;;;;;;;;;;;;;;;;;5054390;28;19928;-69
2023/12/02 15:56:44;;;;;;;;;;;;;;;;;;5013679;28;20028;-69
2023/12/02 15:59:10;;;;;;;;;;;;;;;;;;5012668;28;20013;-69
2023/12/02 16:01:36;;;;;;;;;;;;;;;;;;5015471;28;19996;-69
2023/12/02 16:04:03;;;;;;;;;;;;;;;;;;5017893;28;20358;-69
2023/12/02 16:06:29;;;;;;;;;;;;;;;;;;5011176;28;19925;-70
2023/12/02 16:08:55;;;;;;;;;;;;;;;;;;5018597;28;20323;-69
2023/12/02 16:11:21;;;;;;;;;;;;;;;;;;5004267;28;20392;-69
2023/12/02 16:13:47;;;;;;;;;;;;;;;;;;5013251;28;20052;-69
2023/12/02 16:16:12;;;;;;;;;;;;;;;;;;5011366;28;20059;-70
2023/12/02 16:18:38;;;;;;;;;;;;;;;;;;5010325;28;19926;-68
2023/12/02 16:21:04;;;;;;;;;;;;;;;;;;5011984;28;19933;-69
2023/12/02 16:23:30;;;;;;;;;;;;;;;;;;5006315;28;20024;-69
2023/12/02 16:25:56;;;;;;;;;;;;;;;;;;5009458;28;19921;-69
2023/12/02 16:28:22;;;;;;;;;;;;;;;;;;5011766;28;20401;-70
2023/12/02 16:30:48;;;;;;;;;;;;;;;;;;5013443;28;19932;-69
2023/12/02 16:33:14;;;;;;;;;;;;;;;;;;5011184;28;19921;-69
2023/12/02 16:35:40;;;;;;;;;;;;;;;;;;5003320;28;20299;-69
2023/12/02 16:38:06;;;;;;;;;;;;;;;;;;5015868;28;19921;-69